sensor_id;sensor_type;location;lat;lon;timestamp;temperature;humidity
15749;DHT22;7976;52.526;13.326;2023-08-30T00:01:09;14.60;99.90
15749;DHT22;7976;52.526;13.326;2023-08-30T00:03:36;14.60;99.90
15749;DHT22;7976;52.526;13.326;2023-08-30T00:06:03;14.60;99.90
15749;DHT22;7976;52.526;13.326;2023-08-30T00:08:32;14.60;99.90
15749;DHT22;7976;52.526;13.326;2023-08-30T00:10:59;14.60;99.90
15749;DHT22;7976;52.526;13.326;2023-08-30T00:13:29;14.60;99.90
15749;DHT22;7976;52.526;13.326;2023-08-30T00:15:56;14.60;99.90
15749;DHT22;7976;52.526;13.326;2023-08-30T00:18:23;14.60;99.90
15749;DHT22;7976;52.526;13.326;2023-08-30T00:20:50;14.50;99.90
15749;DHT22;7976;52.526;13.326;2023-08-30T00:23:16;14.50;99.90
15749;DHT22;7976;52.526;13.326;2023-08-30T00:25:45;14.50;99.90
15749;DHT22;7976;52.526;13.326;2023-08-30T00:28:11;14.50;99.90
15749;DHT22;7976;52.526;13.326;2023-08-30T00:30:38;14.50;99.90
15749;DHT22;7976;52.526;13.326;2023-08-30T00:33:06;14.40;99.90
15749;DHT22;7976;52.526;13.326;2023-08-30T00:35:33;14.40;99.90
15749;DHT22;7976;52.526;13.326;2023-08-30T00:38:00;14.50;99.90
15749;DHT22;7976;52.526;13.326;2023-08-30T00:40:28;14.40;99.90
15749;DHT22;7976;52.526;13.326;2023-08-30T00:42:56;14.50;99.90
15749;DHT22;7976;52.526;13.326;2023-08-30T00:45:24;14.50;99.90
15749;DHT22;7976;52.526;13.326;2023-08-30T00:47:53;14.50;99.90
15749;DHT22;7976;52.526;13.326;2023-08-30T00:50:20;14.40;99.90
15749;DHT22;7976;52.526;13.326;2023-08-30T00:52:46;14.40;99.90
15749;DHT22;7976;52.526;13.326;2023-08-30T00:55:14;14.40;99.90
15749;DHT22;7976;52.526;13.326;2023-08-30T00:57:41;14.50;99.90
15749;DHT22;7976;52.526;13.326;2023-08-30T01:00:11;14.40;99.90
15749;DHT22;7976;52.526;13.326;2023-08-30T01:02:40;14.40;99.90
15749;DHT22;7976;52.526;13.326;2023-08-30T01:05:07;14.50;99.90
15749;DHT22;7976;52.526;13.326;2023-08-30T01:07:35;14.50;99.90
15749;DHT22;7976;52.526;13.326;2023-08-30T01:10:02;14.50;99.90
15749;DHT22;7976;52.526;13.326;2023-08-30T01:12:36;14.40;99.90
15749;DHT22;7976;52.526;13.326;2023-08-30T01:15:12;14.50;99.90
15749;DHT22;7976;52.526;13.326;2023-08-30T01:17:42;14.40;99.90
15749;DHT22;7976;52.526;13.326;2023-08-30T01:20:13;14.50;99.90
15749;DHT22;7976;52.526;13.326;2023-08-30T01:22:47;14.50;99.90
15749;DHT22;7976;52.526;13.326;2023-08-30T01:25:30;14.50;99.90
15749;DHT22;7976;52.526;13.326;2023-08-30T01:28:06;14.50;99.90
15749;DHT22;7976;52.526;13.326;2023-08-30T01:30:36;14.50;99.90
15749;DHT22;7976;52.526;13.326;2023-08-30T01:33:07;14.40;99.90
15749;DHT22;7976;52.526;13.326;2023-08-30T01:35:35;14.50;99.90
15749;DHT22;7976;52.526;13.326;2023-08-30T01:38:07;14.50;99.90
15749;DHT22;7976;52.526;13.326;2023-08-30T01:40:37;14.50;99.90
15749;DHT22;7976;52.526;13.326;2023-08-30T01:43:08;14.50;99.90
15749;DHT22;7976;52.526;13.326;2023-08-30T01:45:39;14.40;99.90
15749;DHT22;7976;52.526;13.326;2023-08-30T01:48:11;14.50;99.90
15749;DHT22;7976;52.526;13.326;2023-08-30T01:50:40;14.50;99.90
15749;DHT22;7976;52.526;13.326;2023-08-30T01:53:09;14.40;99.90
15749;DHT22;7976;52.526;13.326;2023-08-30T01:55:39;14.40;99.90
15749;DHT22;7976;52.526;13.326;2023-08-30T01:58:09;14.40;99.90
15749;DHT22;7976;52.526;13.326;2023-08-30T02:00:36;14.40;99.90
15749;DHT22;7976;52.526;13.326;2023-08-30T02:03:09;14.40;99.90
15749;DHT22;7976;52.526;13.326;2023-08-30T02:05:39;14.40;99.90
15749;DHT22;7976;52.526;13.326;2023-08-30T02:08:14;14.40;99.90
15749;DHT22;7976;52.526;13.326;2023-08-30T02:10:50;14.40;99.90
15749;DHT22;7976;52.526;13.326;2023-08-30T02:13:26;14.40;99.90
15749;DHT22;7976;52.526;13.326;2023-08-30T02:15:55;14.30;99.90
15749;DHT22;7976;52.526;13.326;2023-08-30T02:18:23;14.40;99.90
15749;DHT22;7976;52.526;13.326;2023-08-30T02:20:55;14.30;99.90
15749;DHT22;7976;52.526;13.326;2023-08-30T02:23:23;14.30;99.90
15749;DHT22;7976;52.526;13.326;2023-08-30T02:25:51;14.30;99.90
15749;DHT22;7976;52.526;13.326;2023-08-30T02:28:18;14.20;99.90
15749;DHT22;7976;52.526;13.326;2023-08-30T02:30:46;14.20;99.90
15749;DHT22;7976;52.526;13.326;2023-08-30T02:33:13;14.20;99.90
15749;DHT22;7976;52.526;13.326;2023-08-30T02:35:40;14.20;99.90
15749;DHT22;7976;52.526;13.326;2023-08-30T02:38:07;14.20;99.90
15749;DHT22;7976;52.526;13.326;2023-08-30T02:40:33;14.20;99.90
15749;DHT22;7976;52.526;13.326;2023-08-30T02:43:00;14.20;99.90
15749;DHT22;7976;52.526;13.326;2023-08-30T02:45:27;14.20;99.90
15749;DHT22;7976;52.526;13.326;2023-08-30T02:47:56;14.20;99.90
15749;DHT22;7976;52.526;13.326;2023-08-30T02:50:23;14.20;99.90
15749;DHT22;7976;52.526;13.326;2023-08-30T02:52:50;14.20;99.90
15749;DHT22;7976;52.526;13.326;2023-08-30T02:55:16;14.20;99.90
15749;DHT22;7976;52.526;13.326;2023-08-30T02:57:43;14.20;99.90
15749;DHT22;7976;52.526;13.326;2023-08-30T03:00:12;14.10;99.90
15749;DHT22;7976;52.526;13.326;2023-08-30T03:02:42;14.20;99.90
15749;DHT22;7976;52.526;13.326;2023-08-30T03:05:11;14.10;99.90
15749;DHT22;7976;52.526;13.326;2023-08-30T03:07:38;14.10;99.90
15749;DHT22;7976;52.526;13.326;2023-08-30T03:10:06;14.10;99.90
15749;DHT22;7976;52.526;13.326;2023-08-30T03:12:34;14.20;99.90
15749;DHT22;7976;52.526;13.326;2023-08-30T03:15:01;14.10;99.90
15749;DHT22;7976;52.526;13.326;2023-08-30T03:17:28;14.20;99.90
15749;DHT22;7976;52.526;13.326;2023-08-30T03:19:56;14.10;99.90
15749;DHT22;7976;52.526;13.326;2023-08-30T03:22:24;14.20;99.90
15749;DHT22;7976;52.526;13.326;2023-08-30T03:24:51;14.20;99.90
15749;DHT22;7976;52.526;13.326;2023-08-30T03:27:18;14.20;99.90
15749;DHT22;7976;52.526;13.326;2023-08-30T03:29:45;14.20;99.90
15749;DHT22;7976;52.526;13.326;2023-08-30T03:32:15;14.20;99.90
15749;DHT22;7976;52.526;13.326;2023-08-30T03:34:44;14.20;99.90
15749;DHT22;7976;52.526;13.326;2023-08-30T03:37:10;14.20;99.90
15749;DHT22;7976;52.526;13.326;2023-08-30T03:39:39;14.10;99.90
15749;DHT22;7976;52.526;13.326;2023-08-30T03:42:05;14.10;99.90
15749;DHT22;7976;52.526;13.326;2023-08-30T03:44:33;14.10;99.90
15749;DHT22;7976;52.526;13.326;2023-08-30T03:47:00;14.10;99.90
15749;DHT22;7976;52.526;13.326;2023-08-30T03:49:27;14.10;99.90
15749;DHT22;7976;52.526;13.326;2023-08-30T03:51:55;14.10;99.90
15749;DHT22;7976;52.526;13.326;2023-08-30T03:54:22;14.10;99.90
15749;DHT22;7976;52.526;13.326;2023-08-30T03:56:50;14.10;99.90
15749;DHT22;7976;52.526;13.326;2023-08-30T03:59:17;14.10;99.90
15749;DHT22;7976;52.526;13.326;2023-08-30T04:01:45;14.10;99.90
15749;DHT22;7976;52.526;13.326;2023-08-30T04:04:12;14.10;99.90
15749;DHT22;7976;52.526;13.326;2023-08-30T04:06:40;14.20;99.90
15749;DHT22;7976;52.526;13.326;2023-08-30T04:09:07;14.20;99.90
15749;DHT22;7976;52.526;13.326;2023-08-30T04:11:36;14.20;99.90
15749;DHT22;7976;52.526;13.326;2023-08-30T04:14:05;14.20;99.90
15749;DHT22;7976;52.526;13.326;2023-08-30T04:16:32;14.20;99.90
15749;DHT22;7976;52.526;13.326;2023-08-30T04:18:59;14.20;99.90
15749;DHT22;7976;52.526;13.326;2023-08-30T04:21:26;14.20;99.90
15749;DHT22;7976;52.526;13.326;2023-08-30T04:23:52;14.20;99.90
15749;DHT22;7976;52.526;13.326;2023-08-30T04:26:19;14.10;99.90
15749;DHT22;7976;52.526;13.326;2023-08-30T04:28:46;14.20;99.90
15749;DHT22;7976;52.526;13.326;2023-08-30T04:31:14;14.10;99.90
15749;DHT22;7976;52.526;13.326;2023-08-30T04:33:41;14.10;99.90
15749;DHT22;7976;52.526;13.326;2023-08-30T04:36:09;14.20;99.90
15749;DHT22;7976;52.526;13.326;2023-08-30T04:38:36;14.20;99.90
15749;DHT22;7976;52.526;13.326;2023-08-30T04:41:02;14.20;99.90
15749;DHT22;7976;52.526;13.326;2023-08-30T04:43:33;14.20;99.90
15749;DHT22;7976;52.526;13.326;2023-08-30T04:46:00;14.20;99.90
15749;DHT22;7976;52.526;13.326;2023-08-30T04:48:28;14.20;99.90
15749;DHT22;7976;52.526;13.326;2023-08-30T04:51:00;14.20;99.90
15749;DHT22;7976;52.526;13.326;2023-08-30T04:53:28;14.20;99.90
15749;DHT22;7976;52.526;13.326;2023-08-30T04:55:58;14.20;99.90
15749;DHT22;7976;52.526;13.326;2023-08-30T04:58:26;14.20;99.90
15749;DHT22;7976;52.526;13.326;2023-08-30T05:00:55;14.30;99.90
15749;DHT22;7976;52.526;13.326;2023-08-30T05:03:22;14.30;99.90
15749;DHT22;7976;52.526;13.326;2023-08-30T05:05:51;14.30;99.90
15749;DHT22;7976;52.526;13.326;2023-08-30T05:08:18;14.30;99.90
15749;DHT22;7976;52.526;13.326;2023-08-30T05:10:45;14.40;99.90
15749;DHT22;7976;52.526;13.326;2023-08-30T05:13:14;14.40;99.90
15749;DHT22;7976;52.526;13.326;2023-08-30T05:15:42;14.40;99.90
15749;DHT22;7976;52.526;13.326;2023-08-30T05:18:09;14.40;99.90
15749;DHT22;7976;52.526;13.326;2023-08-30T05:20:39;14.50;99.90
15749;DHT22;7976;52.526;13.326;2023-08-30T05:23:07;14.50;99.90
15749;DHT22;7976;52.526;13.326;2023-08-30T05:25:34;14.60;99.90
15749;DHT22;7976;52.526;13.326;2023-08-30T05:28:01;14.60;99.90
15749;DHT22;7976;52.526;13.326;2023-08-30T05:30:29;14.70;99.90
15749;DHT22;7976;52.526;13.326;2023-08-30T05:32:58;14.70;99.90
15749;DHT22;7976;52.526;13.326;2023-08-30T05:35:42;14.70;99.90
15749;DHT22;7976;52.526;13.326;2023-08-30T05:38:24;14.80;99.90
15749;DHT22;7976;52.526;13.326;2023-08-30T05:41:10;14.80;99.90
15749;DHT22;7976;52.526;13.326;2023-08-30T05:43:37;14.80;99.90
15749;DHT22;7976;52.526;13.326;2023-08-30T05:46:04;14.80;99.90
15749;DHT22;7976;52.526;13.326;2023-08-30T05:48:33;14.80;99.90
15749;DHT22;7976;52.526;13.326;2023-08-30T05:51:01;14.90;99.90
15749;DHT22;7976;52.526;13.326;2023-08-30T05:53:29;14.90;99.90
15749;DHT22;7976;52.526;13.326;2023-08-30T05:55:56;15.00;99.90
15749;DHT22;7976;52.526;13.326;2023-08-30T05:58:23;15.00;99.90
15749;DHT22;7976;52.526;13.326;2023-08-30T06:00:50;15.00;99.90
15749;DHT22;7976;52.526;13.326;2023-08-30T06:03:17;15.00;99.90
15749;DHT22;7976;52.526;13.326;2023-08-30T06:05:44;15.00;99.90
15749;DHT22;7976;52.526;13.326;2023-08-30T06:08:10;15.10;99.90
15749;DHT22;7976;52.526;13.326;2023-08-30T06:10:39;15.10;99.90
15749;DHT22;7976;52.526;13.326;2023-08-30T06:13:05;15.10;99.90
15749;DHT22;7976;52.526;13.326;2023-08-30T06:15:32;15.10;99.90
15749;DHT22;7976;52.526;13.326;2023-08-30T06:17:59;15.20;99.90
15749;DHT22;7976;52.526;13.326;2023-08-30T06:20:26;15.20;99.90
15749;DHT22;7976;52.526;13.326;2023-08-30T06:22:53;15.20;99.90
15749;DHT22;7976;52.526;13.326;2023-08-30T06:25:21;15.30;99.90
15749;DHT22;7976;52.526;13.326;2023-08-30T06:27:57;15.30;99.90
15749;DHT22;7976;52.526;13.326;2023-08-30T06:30:26;15.30;99.90
15749;DHT22;7976;52.526;13.326;2023-08-30T06:32:55;15.30;99.90
15749;DHT22;7976;52.526;13.326;2023-08-30T06:35:22;15.40;99.90
15749;DHT22;7976;52.526;13.326;2023-08-30T06:37:49;15.40;99.90
15749;DHT22;7976;52.526;13.326;2023-08-30T06:40:16;15.40;99.90
15749;DHT22;7976;52.526;13.326;2023-08-30T06:42:43;15.40;99.90
15749;DHT22;7976;52.526;13.326;2023-08-30T06:45:11;15.40;99.90
15749;DHT22;7976;52.526;13.326;2023-08-30T06:47:38;15.40;99.90
15749;DHT22;7976;52.526;13.326;2023-08-30T06:50:06;15.50;99.90
15749;DHT22;7976;52.526;13.326;2023-08-30T06:52:34;15.50;99.90
15749;DHT22;7976;52.526;13.326;2023-08-30T06:55:02;15.50;99.90
15749;DHT22;7976;52.526;13.326;2023-08-30T06:57:29;15.60;99.90
15749;DHT22;7976;52.526;13.326;2023-08-30T06:59:55;15.50;99.90
15749;DHT22;7976;52.526;13.326;2023-08-30T07:02:25;15.60;99.90
15749;DHT22;7976;52.526;13.326;2023-08-30T07:04:53;15.60;99.90
15749;DHT22;7976;52.526;13.326;2023-08-30T07:07:19;15.70;99.90
15749;DHT22;7976;52.526;13.326;2023-08-30T07:09:46;15.70;99.90
15749;DHT22;7976;52.526;13.326;2023-08-30T07:12:13;15.70;99.90
15749;DHT22;7976;52.526;13.326;2023-08-30T07:14:40;15.80;99.90
15749;DHT22;7976;52.526;13.326;2023-08-30T07:17:07;15.80;99.90
15749;DHT22;7976;52.526;13.326;2023-08-30T07:19:35;15.80;99.90
15749;DHT22;7976;52.526;13.326;2023-08-30T07:22:01;15.80;99.90
15749;DHT22;7976;52.526;13.326;2023-08-30T07:24:29;15.80;99.90
15749;DHT22;7976;52.526;13.326;2023-08-30T07:26:56;15.80;99.90
15749;DHT22;7976;52.526;13.326;2023-08-30T07:29:23;15.80;99.90
15749;DHT22;7976;52.526;13.326;2023-08-30T07:31:50;15.80;99.90
15749;DHT22;7976;52.526;13.326;2023-08-30T07:34:19;15.90;99.90
15749;DHT22;7976;52.526;13.326;2023-08-30T07:36:47;15.90;99.90
15749;DHT22;7976;52.526;13.326;2023-08-30T07:39:13;15.90;99.90
15749;DHT22;7976;52.526;13.326;2023-08-30T07:41:40;15.90;99.90
15749;DHT22;7976;52.526;13.326;2023-08-30T07:44:08;15.80;99.90
15749;DHT22;7976;52.526;13.326;2023-08-30T07:46:34;15.80;99.90
15749;DHT22;7976;52.526;13.326;2023-08-30T07:49:01;15.80;99.90
15749;DHT22;7976;52.526;13.326;2023-08-30T07:51:28;15.80;99.90
15749;DHT22;7976;52.526;13.326;2023-08-30T07:53:57;15.80;99.90
15749;DHT22;7976;52.526;13.326;2023-08-30T07:56:23;15.80;99.90
15749;DHT22;7976;52.526;13.326;2023-08-30T07:58:51;15.90;99.90
15749;DHT22;7976;52.526;13.326;2023-08-30T08:01:18;15.90;99.90
15749;DHT22;7976;52.526;13.326;2023-08-30T08:03:44;15.90;99.90
15749;DHT22;7976;52.526;13.326;2023-08-30T08:06:12;15.90;99.90
15749;DHT22;7976;52.526;13.326;2023-08-30T08:08:39;15.90;99.90
15749;DHT22;7976;52.526;13.326;2023-08-30T08:11:07;15.90;99.90
15749;DHT22;7976;52.526;13.326;2023-08-30T08:13:34;15.90;99.90
15749;DHT22;7976;52.526;13.326;2023-08-30T08:16:02;15.90;99.90
15749;DHT22;7976;52.526;13.326;2023-08-30T08:18:29;15.90;99.90
15749;DHT22;7976;52.526;13.326;2023-08-30T08:20:56;15.90;99.90
15749;DHT22;7976;52.526;13.326;2023-08-30T08:23:23;15.90;99.90
15749;DHT22;7976;52.526;13.326;2023-08-30T08:25:57;16.00;99.90
15749;DHT22;7976;52.526;13.326;2023-08-30T08:28:25;16.00;99.90
15749;DHT22;7976;52.526;13.326;2023-08-30T08:30:52;16.00;99.90
15749;DHT22;7976;52.526;13.326;2023-08-30T08:33:20;16.10;99.90
15749;DHT22;7976;52.526;13.326;2023-08-30T08:35:48;16.00;99.90
15749;DHT22;7976;52.526;13.326;2023-08-30T08:38:15;16.10;99.90
15749;DHT22;7976;52.526;13.326;2023-08-30T08:40:42;16.10;99.90
15749;DHT22;7976;52.526;13.326;2023-08-30T08:43:10;16.10;99.90
15749;DHT22;7976;52.526;13.326;2023-08-30T08:45:39;16.10;99.90
15749;DHT22;7976;52.526;13.326;2023-08-30T08:48:06;16.20;99.90
15749;DHT22;7976;52.526;13.326;2023-08-30T08:50:34;16.30;99.90
15749;DHT22;7976;52.526;13.326;2023-08-30T08:53:02;16.40;99.90
15749;DHT22;7976;52.526;13.326;2023-08-30T08:55:29;16.40;99.90
15749;DHT22;7976;52.526;13.326;2023-08-30T08:57:57;16.40;99.90
15749;DHT22;7976;52.526;13.326;2023-08-30T09:00:25;16.40;99.90
15749;DHT22;7976;52.526;13.326;2023-08-30T09:02:55;16.50;99.90
15749;DHT22;7976;52.526;13.326;2023-08-30T09:05:22;16.60;99.90
15749;DHT22;7976;52.526;13.326;2023-08-30T09:07:50;16.60;99.90
15749;DHT22;7976;52.526;13.326;2023-08-30T09:10:20;16.70;99.90
15749;DHT22;7976;52.526;13.326;2023-08-30T09:12:47;16.70;99.90
15749;DHT22;7976;52.526;13.326;2023-08-30T09:15:14;16.70;99.90
15749;DHT22;7976;52.526;13.326;2023-08-30T09:17:41;16.70;99.90
15749;DHT22;7976;52.526;13.326;2023-08-30T09:20:11;16.70;99.90
15749;DHT22;7976;52.526;13.326;2023-08-30T09:22:40;16.80;99.90
15749;DHT22;7976;52.526;13.326;2023-08-30T09:25:10;16.80;99.90
15749;DHT22;7976;52.526;13.326;2023-08-30T09:27:38;16.80;99.90
15749;DHT22;7976;52.526;13.326;2023-08-30T09:30:07;16.80;99.90
15749;DHT22;7976;52.526;13.326;2023-08-30T09:32:39;16.90;99.90
15749;DHT22;7976;52.526;13.326;2023-08-30T09:35:10;17.00;99.90
15749;DHT22;7976;52.526;13.326;2023-08-30T09:37:37;17.10;99.90
15749;DHT22;7976;52.526;13.326;2023-08-30T09:40:05;17.20;99.90
15749;DHT22;7976;52.526;13.326;2023-08-30T09:42:33;17.30;99.90
15749;DHT22;7976;52.526;13.326;2023-08-30T09:45:00;17.40;99.90
15749;DHT22;7976;52.526;13.326;2023-08-30T09:47:29;17.40;99.90
15749;DHT22;7976;52.526;13.326;2023-08-30T09:49:58;17.50;99.90
15749;DHT22;7976;52.526;13.326;2023-08-30T09:52:30;17.60;99.90
15749;DHT22;7976;52.526;13.326;2023-08-30T09:54:58;17.60;99.90
15749;DHT22;7976;52.526;13.326;2023-08-30T09:57:27;17.60;99.90
15749;DHT22;7976;52.526;13.326;2023-08-30T09:59:55;17.70;99.90
15749;DHT22;7976;52.526;13.326;2023-08-30T10:02:24;17.80;99.90
15749;DHT22;7976;52.526;13.326;2023-08-30T10:04:51;17.90;99.90
15749;DHT22;7976;52.526;13.326;2023-08-30T10:07:19;17.90;99.90
15749;DHT22;7976;52.526;13.326;2023-08-30T10:09:50;18.00;99.90
15749;DHT22;7976;52.526;13.326;2023-08-30T10:12:20;18.10;99.90
15749;DHT22;7976;52.526;13.326;2023-08-30T10:14:48;18.10;99.90
15749;DHT22;7976;52.526;13.326;2023-08-30T10:17:18;18.20;99.90
15749;DHT22;7976;52.526;13.326;2023-08-30T10:19:50;18.20;99.90
15749;DHT22;7976;52.526;13.326;2023-08-30T10:22:18;18.10;99.90
15749;DHT22;7976;52.526;13.326;2023-08-30T10:24:51;18.10;99.90
15749;DHT22;7976;52.526;13.326;2023-08-30T10:27:21;18.00;99.90
15749;DHT22;7976;52.526;13.326;2023-08-30T10:29:50;18.10;99.90
15749;DHT22;7976;52.526;13.326;2023-08-30T10:32:19;18.10;99.90
15749;DHT22;7976;52.526;13.326;2023-08-30T10:34:48;18.10;99.90
15749;DHT22;7976;52.526;13.326;2023-08-30T10:37:21;18.10;99.90
15749;DHT22;7976;52.526;13.326;2023-08-30T10:39:50;18.10;99.90
15749;DHT22;7976;52.526;13.326;2023-08-30T10:42:22;18.10;99.90
15749;DHT22;7976;52.526;13.326;2023-08-30T10:44:50;18.20;99.90
15749;DHT22;7976;52.526;13.326;2023-08-30T10:47:22;18.20;99.90
15749;DHT22;7976;52.526;13.326;2023-08-30T10:49:53;18.20;99.90
15749;DHT22;7976;52.526;13.326;2023-08-30T10:52:21;18.20;99.90
15749;DHT22;7976;52.526;13.326;2023-08-30T10:54:50;18.30;99.90
15749;DHT22;7976;52.526;13.326;2023-08-30T10:57:19;18.40;99.90
15749;DHT22;7976;52.526;13.326;2023-08-30T11:00:07;18.50;99.90
15749;DHT22;7976;52.526;13.326;2023-08-30T11:02:36;18.50;99.90
15749;DHT22;7976;52.526;13.326;2023-08-30T11:05:06;18.50;99.90
15749;DHT22;7976;52.526;13.326;2023-08-30T11:07:35;18.40;99.90
15749;DHT22;7976;52.526;13.326;2023-08-30T11:10:05;18.40;99.90
15749;DHT22;7976;52.526;13.326;2023-08-30T11:12:34;18.40;99.90
15749;DHT22;7976;52.526;13.326;2023-08-30T11:15:02;18.40;99.90
15749;DHT22;7976;52.526;13.326;2023-08-30T11:17:29;18.40;99.90
15749;DHT22;7976;52.526;13.326;2023-08-30T11:20:06;18.40;99.90
15749;DHT22;7976;52.526;13.326;2023-08-30T11:22:35;18.40;99.90
15749;DHT22;7976;52.526;13.326;2023-08-30T11:25:05;18.30;99.90
15749;DHT22;7976;52.526;13.326;2023-08-30T11:27:34;18.20;99.90
15749;DHT22;7976;52.526;13.326;2023-08-30T11:30:02;18.20;99.90
15749;DHT22;7976;52.526;13.326;2023-08-30T11:32:32;18.20;99.90
15749;DHT22;7976;52.526;13.326;2023-08-30T11:35:00;18.20;99.90
15749;DHT22;7976;52.526;13.326;2023-08-30T11:37:27;18.30;99.90
15749;DHT22;7976;52.526;13.326;2023-08-30T11:39:55;18.30;99.90
15749;DHT22;7976;52.526;13.326;2023-08-30T11:42:25;18.40;99.90
15749;DHT22;7976;52.526;13.326;2023-08-30T11:44:52;18.50;99.90
15749;DHT22;7976;52.526;13.326;2023-08-30T11:47:20;18.50;99.90
15749;DHT22;7976;52.526;13.326;2023-08-30T11:49:49;18.50;99.90
15749;DHT22;7976;52.526;13.326;2023-08-30T11:52:19;18.60;99.90
15749;DHT22;7976;52.526;13.326;2023-08-30T11:54:47;18.60;99.90
15749;DHT22;7976;52.526;13.326;2023-08-30T11:57:14;18.60;99.90
15749;DHT22;7976;52.526;13.326;2023-08-30T11:59:43;18.60;99.90
15749;DHT22;7976;52.526;13.326;2023-08-30T12:02:12;18.60;99.90
15749;DHT22;7976;52.526;13.326;2023-08-30T12:04:41;18.70;99.90
15749;DHT22;7976;52.526;13.326;2023-08-30T12:07:09;18.70;99.90
15749;DHT22;7976;52.526;13.326;2023-08-30T12:09:36;18.70;99.90
15749;DHT22;7976;52.526;13.326;2023-08-30T12:12:08;18.70;99.90
15749;DHT22;7976;52.526;13.326;2023-08-30T12:14:37;18.70;99.90
15749;DHT22;7976;52.526;13.326;2023-08-30T12:17:05;18.70;99.90
15749;DHT22;7976;52.526;13.326;2023-08-30T12:19:34;18.70;99.90
15749;DHT22;7976;52.526;13.326;2023-08-30T12:22:05;18.60;99.90
15749;DHT22;7976;52.526;13.326;2023-08-30T12:24:43;18.50;99.90
15749;DHT22;7976;52.526;13.326;2023-08-30T12:27:10;18.50;99.90
15749;DHT22;7976;52.526;13.326;2023-08-30T12:29:37;18.50;99.90
15749;DHT22;7976;52.526;13.326;2023-08-30T12:32:06;18.50;99.90
15749;DHT22;7976;52.526;13.326;2023-08-30T12:34:34;18.50;99.90
15749;DHT22;7976;52.526;13.326;2023-08-30T12:37:01;18.40;99.90
15749;DHT22;7976;52.526;13.326;2023-08-30T12:39:28;18.40;99.90
15749;DHT22;7976;52.526;13.326;2023-08-30T12:41:56;18.40;99.90
15749;DHT22;7976;52.526;13.326;2023-08-30T12:44:23;18.40;99.90
15749;DHT22;7976;52.526;13.326;2023-08-30T12:46:50;18.30;99.90
15749;DHT22;7976;52.526;13.326;2023-08-30T12:49:18;18.30;99.90
15749;DHT22;7976;52.526;13.326;2023-08-30T12:51:45;18.30;99.90
15749;DHT22;7976;52.526;13.326;2023-08-30T12:54:12;18.20;99.90
15749;DHT22;7976;52.526;13.326;2023-08-30T12:56:38;18.30;99.90
15749;DHT22;7976;52.526;13.326;2023-08-30T12:59:05;18.20;99.90
15749;DHT22;7976;52.526;13.326;2023-08-30T13:01:32;18.20;99.90
15749;DHT22;7976;52.526;13.326;2023-08-30T13:03:59;18.30;99.90
15749;DHT22;7976;52.526;13.326;2023-08-30T13:06:27;18.20;99.90
15749;DHT22;7976;52.526;13.326;2023-08-30T13:08:56;18.20;99.90
15749;DHT22;7976;52.526;13.326;2023-08-30T13:11:22;18.30;99.90
15749;DHT22;7976;52.526;13.326;2023-08-30T13:13:51;18.30;99.90
15749;DHT22;7976;52.526;13.326;2023-08-30T13:16:18;18.40;99.90
15749;DHT22;7976;52.526;13.326;2023-08-30T13:18:45;18.40;99.90
15749;DHT22;7976;52.526;13.326;2023-08-30T13:21:12;18.50;99.90
15749;DHT22;7976;52.526;13.326;2023-08-30T13:23:40;18.50;99.90
15749;DHT22;7976;52.526;13.326;2023-08-30T13:26:07;18.60;99.90
15749;DHT22;7976;52.526;13.326;2023-08-30T13:28:35;18.60;99.90
15749;DHT22;7976;52.526;13.326;2023-08-30T13:31:02;18.60;99.90
15749;DHT22;7976;52.526;13.326;2023-08-30T13:33:29;18.60;99.90
15749;DHT22;7976;52.526;13.326;2023-08-30T13:35:56;18.60;99.90
15749;DHT22;7976;52.526;13.326;2023-08-30T13:38:22;18.60;99.90
15749;DHT22;7976;52.526;13.326;2023-08-30T13:40:58;18.60;99.90
15749;DHT22;7976;52.526;13.326;2023-08-30T13:43:25;18.60;99.90
15749;DHT22;7976;52.526;13.326;2023-08-30T13:45:57;18.60;99.90
15749;DHT22;7976;52.526;13.326;2023-08-30T13:48:24;18.70;99.90
15749;DHT22;7976;52.526;13.326;2023-08-30T13:50:51;18.70;99.90
15749;DHT22;7976;52.526;13.326;2023-08-30T13:53:18;18.80;99.90
15749;DHT22;7976;52.526;13.326;2023-08-30T13:55:45;18.80;99.90
15749;DHT22;7976;52.526;13.326;2023-08-30T13:58:15;18.80;99.90
15749;DHT22;7976;52.526;13.326;2023-08-30T14:00:43;18.90;99.90
15749;DHT22;7976;52.526;13.326;2023-08-30T14:03:11;19.00;99.90
15749;DHT22;7976;52.526;13.326;2023-08-30T14:05:38;19.10;99.90
15749;DHT22;7976;52.526;13.326;2023-08-30T14:08:06;19.20;99.90
15749;DHT22;7976;52.526;13.326;2023-08-30T14:10:32;19.20;99.90
15749;DHT22;7976;52.526;13.326;2023-08-30T14:12:59;19.30;99.90
15749;DHT22;7976;52.526;13.326;2023-08-30T14:15:27;19.30;99.90
15749;DHT22;7976;52.526;13.326;2023-08-30T14:17:54;19.20;99.90
15749;DHT22;7976;52.526;13.326;2023-08-30T14:20:21;19.20;99.90
15749;DHT22;7976;52.526;13.326;2023-08-30T14:22:48;19.20;99.90
15749;DHT22;7976;52.526;13.326;2023-08-30T14:25:15;19.30;99.90
15749;DHT22;7976;52.526;13.326;2023-08-30T14:27:41;19.20;99.90
15749;DHT22;7976;52.526;13.326;2023-08-30T14:30:10;19.20;99.90
15749;DHT22;7976;52.526;13.326;2023-08-30T14:32:38;19.10;99.90
15749;DHT22;7976;52.526;13.326;2023-08-30T14:35:06;19.00;99.90
15749;DHT22;7976;52.526;13.326;2023-08-30T14:37:34;19.00;99.90
15749;DHT22;7976;52.526;13.326;2023-08-30T14:40:02;19.00;99.90
15749;DHT22;7976;52.526;13.326;2023-08-30T14:42:29;19.00;99.90
15749;DHT22;7976;52.526;13.326;2023-08-30T14:44:57;19.00;99.90
15749;DHT22;7976;52.526;13.326;2023-08-30T14:47:24;19.10;99.90
15749;DHT22;7976;52.526;13.326;2023-08-30T14:49:55;19.10;99.90
15749;DHT22;7976;52.526;13.326;2023-08-30T14:52:22;19.00;99.90
15749;DHT22;7976;52.526;13.326;2023-08-30T14:54:48;19.00;99.90
15749;DHT22;7976;52.526;13.326;2023-08-30T14:57:15;19.00;99.90
15749;DHT22;7976;52.526;13.326;2023-08-30T14:59:42;19.00;99.90
15749;DHT22;7976;52.526;13.326;2023-08-30T15:02:09;19.00;99.90
15749;DHT22;7976;52.526;13.326;2023-08-30T15:04:36;19.00;99.90
15749;DHT22;7976;52.526;13.326;2023-08-30T15:07:04;19.00;99.90
15749;DHT22;7976;52.526;13.326;2023-08-30T15:09:31;19.00;99.90
15749;DHT22;7976;52.526;13.326;2023-08-30T15:11:58;19.00;99.90
15749;DHT22;7976;52.526;13.326;2023-08-30T15:14:25;19.00;99.90
15749;DHT22;7976;52.526;13.326;2023-08-30T15:16:53;18.90;99.90
15749;DHT22;7976;52.526;13.326;2023-08-30T15:19:20;18.90;99.90
15749;DHT22;7976;52.526;13.326;2023-08-30T15:21:47;18.80;99.90
15749;DHT22;7976;52.526;13.326;2023-08-30T15:24:15;18.80;99.90
15749;DHT22;7976;52.526;13.326;2023-08-30T15:26:43;18.70;99.90
15749;DHT22;7976;52.526;13.326;2023-08-30T15:29:10;18.60;99.90
15749;DHT22;7976;52.526;13.326;2023-08-30T15:31:37;18.60;99.90
15749;DHT22;7976;52.526;13.326;2023-08-30T15:34:04;18.50;99.90
15749;DHT22;7976;52.526;13.326;2023-08-30T15:36:31;18.50;99.90